Time;durP1;ratioP1;P1;durP2;ratioP2;P2;SDS_P1;SDS_P2;PMS_P1;PMS_P2;Temp;Humidity;BMP_temperature;BMP_pressure;BME280_temperature;BME280_humidity;BME280_pressure;Samples;Min_cycle;Max_cycle;Signal;HPM_P1;HPM_P2
2021/07/22 00:02:30;;;;;;;;;;;;;;;18.00;68.49;98656.55;1873506;76;20204;-63
2021/07/22 00:05:06;;;;;;;;;;;;;;;17.98;68.59;98648.34;1873593;76;20247;-61
2021/07/22 00:07:40;;;;;;;;;;;;;;;17.97;68.66;98646.19;1873518;76;20212;-61
2021/07/22 00:10:16;;;;;;;;;;;;;;;17.96;68.68;98657.55;1873485;76;20204;-62
2021/07/22 00:12:50;;;;;;;;;;;;;;;17.95;68.83;98651.89;1873487;76;20093;-62
2021/07/22 00:15:25;;;;;;;;;;;;;;;17.93;68.96;98650.20;1892819;76;20207;-61
2021/07/22 00:18:01;;;;;;;;;;;;;;;17.88;69.18;98662.06;1892801;76;20093;-62
2021/07/22 00:20:36;;;;;;;;;;;;;;;17.85;69.40;98666.51;1892793;76;20330;-62
2021/07/22 00:23:29;;;;;;;;;;;;;;;17.79;69.68;98662.27;1892904;76;20207;-62
2021/07/22 00:26:04;;;;;;;;;;;;;;;17.75;69.94;98657.54;1873481;76;20208;-62
2021/07/22 00:28:39;;;;;;;;;;;;;;;17.71;70.13;98662.89;1873474;76;20204;-61
2021/07/22 00:31:14;;;;;;;;;;;;;;;17.67;70.43;98670.37;1873595;76;20097;-62
2021/07/22 00:33:48;;;;;;;;;;;;;;;17.63;70.54;98672.20;1873458;76;20212;-61
2021/07/22 00:36:24;;;;;;;;;;;;;;;17.64;70.69;98671.75;1873381;76;20208;-62
2021/07/22 00:39:18;;;;;;;;;;;;;;;17.65;70.83;98672.14;1873445;76;20208;-63
2021/07/22 00:41:54;;;;;;;;;;;;;;;17.64;70.95;98677.81;1873202;76;20359;-61
2021/07/22 00:44:29;;;;;;;;;;;;;;;17.63;70.99;98673.92;1873402;76;20352;-62
2021/07/22 00:47:23;;;;;;;;;;;;;;;17.58;71.10;98677.52;1873224;75;20224;-62
2021/07/22 00:50:01;;;;;;;;;;;;;;;17.56;71.26;98676.68;1873305;76;20458;-62
2021/07/22 00:52:35;;;;;;;;;;;;;;;17.53;71.37;98687.19;1873602;76;20204;-61
2021/07/22 00:55:10;;;;;;;;;;;;;;;17.51;71.50;98681.14;1873459;76;20294;-62
2021/07/22 00:57:45;;;;;;;;;;;;;;;17.47;71.67;98686.00;1873556;76;20212;-62
2021/07/22 01:00:21;;;;;;;;;;;;;;;17.46;71.86;98688.21;1892750;76;20100;-62
2021/07/22 01:02:56;;;;;;;;;;;;;;;17.45;72.02;98690.39;1892938;76;20092;-62
2021/07/22 01:05:30;;;;;;;;;;;;;;;17.44;72.08;98680.86;1873591;76;20209;-62
2021/07/22 01:08:05;;;;;;;;;;;;;;;17.45;72.03;98686.47;1873489;76;20212;-61
2021/07/22 01:10:40;;;;;;;;;;;;;;;17.44;72.13;98688.68;1873323;76;20097;-62
2021/07/22 01:13:15;;;;;;;;;;;;;;;17.41;72.22;98690.05;1873510;76;20204;-62
2021/07/22 01:15:49;;;;;;;;;;;;;;;17.36;72.38;98694.52;1873629;76;20101;-62
2021/07/22 01:18:25;;;;;;;;;;;;;;;17.31;72.57;98690.69;1873347;76;20359;-62
2021/07/22 01:21:00;;;;;;;;;;;;;;;17.27;72.75;98699.91;1873409;76;20359;-62
2021/07/22 01:23:34;;;;;;;;;;;;;;;17.22;72.96;98690.02;1892791;76;20453;-61
2021/07/22 01:26:09;;;;;;;;;;;;;;;17.17;73.21;98703.59;1873495;76;20449;-62
2021/07/22 01:29:04;;;;;;;;;;;;;;;17.14;73.37;98707.97;1873458;76;20094;-62
2021/07/22 01:32:05;;;;;;;;;;;;;;;17.13;73.33;98712.78;1892842;76;20211;-62
2021/07/22 01:34:39;;;;;;;;;;;;;;;17.11;73.49;98718.47;1873578;76;20097;-62
2021/07/22 01:37:14;;;;;;;;;;;;;;;17.09;73.46;98711.11;1892804;76;20346;-62
2021/07/22 01:39:50;;;;;;;;;;;;;;;17.06;73.60;98695.53;1892821;76;20462;-62
2021/07/22 01:42:25;;;;;;;;;;;;;;;17.02;73.64;98714.75;1873544;76;20093;-62
2021/07/22 01:44:59;;;;;;;;;;;;;;;16.98;73.63;98714.38;1892795;76;20457;-62
2021/07/22 01:47:39;;;;;;;;;;;;;;;16.93;73.67;98705.79;1892754;76;20351;-62
2021/07/22 01:50:13;;;;;;;;;;;;;;;16.91;73.75;98703.66;1873452;76;20212;-61
2021/07/22 01:52:54;;;;;;;;;;;;;;;16.89;73.71;98714.55;1872722;76;20216;-62
2021/07/22 01:55:28;;;;;;;;;;;;;;;16.89;73.90;98714.13;1873498;76;20208;-63
2021/07/22 01:58:03;;;;;;;;;;;;;;;16.89;73.87;98710.63;1873496;76;20209;-62
2021/07/22 02:00:43;;;;;;;;;;;;;;;16.87;73.94;98720.25;1872631;76;20463;-61
2021/07/22 02:03:18;;;;;;;;;;;;;;;16.83;73.99;98725.95;1837973;77;20186;-61
2021/07/22 02:05:52;;;;;;;;;;;;;;;16.79;74.11;98718.20;1873522;76;20478;-61
2021/07/22 02:08:26;;;;;;;;;;;;;;;16.74;74.29;98723.49;1873605;76;20097;-61
2021/07/22 02:11:05;;;;;;;;;;;;;;;16.67;74.33;98713.61;1892819;76;20203;-61
2021/07/22 02:13:40;;;;;;;;;;;;;;;16.64;74.55;98721.48;1873318;76;20101;-61
2021/07/22 02:16:15;;;;;;;;;;;;;;;16.61;74.76;98720.25;1873493;76;20212;-62
2021/07/22 02:18:49;;;;;;;;;;;;;;;16.59;74.76;98727.22;1873504;76;20334;-62
2021/07/22 02:21:24;;;;;;;;;;;;;;;16.56;74.84;98728.55;1873498;76;20212;-62
2021/07/22 02:23:58;;;;;;;;;;;;;;;16.54;74.81;98730.34;1873520;76;20097;-62
2021/07/22 02:26:33;;;;;;;;;;;;;;;16.51;74.94;98722.56;1892822;76;20211;-62
2021/07/22 02:29:08;;;;;;;;;;;;;;;16.48;74.94;98726.53;1892789;76;20211;-62
2021/07/22 02:31:43;;;;;;;;;;;;;;;16.46;74.84;98721.78;1873420;76;20093;-62
2021/07/22 02:34:17;;;;;;;;;;;;;;;16.46;74.92;98723.08;1873500;76;20212;-62
2021/07/22 02:36:52;;;;;;;;;;;;;;;16.45;74.83;98725.28;1873486;76;20327;-61
2021/07/22 02:39:26;;;;;;;;;;;;;;;16.46;74.73;98730.89;1873632;76;20208;-62
2021/07/22 02:42:01;;;;;;;;;;;;;;;16.45;74.55;98724.83;1873559;76;20097;-63
2021/07/22 02:44:39;;;;;;;;;;;;;;;16.45;74.43;98731.80;1873517;76;20216;-62
2021/07/22 02:47:12;;;;;;;;;;;;;;;16.42;74.57;98739.22;1873510;76;20093;-60
2021/07/22 02:49:46;;;;;;;;;;;;;;;16.39;74.27;98739.72;1873521;76;20212;-63
2021/07/22 02:52:20;;;;;;;;;;;;;;;16.37;74.30;98739.73;1892827;76;20457;-62
2021/07/22 02:54:55;;;;;;;;;;;;;;;16.38;74.15;98743.19;1892850;76;20338;-61
2021/07/22 02:57:29;;;;;;;;;;;;;;;16.39;73.97;98742.32;1873516;76;20355;-62
2021/07/22 03:00:05;;;;;;;;;;;;;;;16.41;73.88;98758.76;1892834;76;20350;-62
2021/07/22 03:02:40;;;;;;;;;;;;;;;16.41;73.69;98743.13;1873505;76;20204;-62
2021/07/22 03:05:14;;;;;;;;;;;;;;;16.39;73.73;98750.98;1873543;76;20201;-62
2021/07/22 03:07:49;;;;;;;;;;;;;;;16.40;73.39;98762.27;1873484;76;20351;-62
2021/07/22 03:10:30;;;;;;;;;;;;;;;16.39;73.40;98765.77;1872973;76;20098;-61
2021/07/22 03:13:04;;;;;;;;;;;;;;;16.42;73.31;98756.59;1892827;76;20101;-63
2021/07/22 03:15:39;;;;;;;;;;;;;;;16.42;72.90;98758.75;1892904;76;20212;-63
2021/07/22 03:18:13;;;;;;;;;;;;;;;16.43;72.97;98771.32;1873543;76;20212;-62
2021/07/22 03:20:50;;;;;;;;;;;;;;;16.46;72.86;98777.36;1892831;76;20203;-61
2021/07/22 03:23:25;;;;;;;;;;;;;;;16.44;72.53;98776.97;1892825;76;20204;-62
2021/07/22 03:26:01;;;;;;;;;;;;;;;16.42;72.70;98778.28;1873673;76;20101;-61
2021/07/22 03:28:35;;;;;;;;;;;;;;;16.42;72.50;98776.98;1873498;76;20094;-62
2021/07/22 03:31:09;;;;;;;;;;;;;;;16.44;72.37;98784.78;1873471;76;20469;-62
2021/07/22 03:33:44;;;;;;;;;;;;;;;16.48;72.30;98785.13;1873486;76;20482;-63
2021/07/22 03:36:18;;;;;;;;;;;;;;;16.48;71.92;98782.08;1892808;76;20342;-61
2021/07/22 03:38:59;;;;;;;;;;;;;;;16.53;71.60;98779.41;1872611;76;20323;-61
2021/07/22 03:41:34;;;;;;;;;;;;;;;16.57;71.46;98773.72;1873455;76;20094;-64
2021/07/22 03:44:10;;;;;;;;;;;;;;;16.60;71.32;98774.97;1873275;76;20340;-63
2021/07/22 03:46:48;;;;;;;;;;;;;;;16.59;71.13;98770.20;1892878;76;20199;-63
2021/07/22 03:49:22;;;;;;;;;;;;;;;16.59;70.84;98781.94;1873483;76;20094;-63
2021/07/22 03:51:57;;;;;;;;;;;;;;;16.61;70.86;98777.56;1873501;76;20094;-62
2021/07/22 03:54:59;;;;;;;;;;;;;;;16.61;70.53;98789.28;1892887;76;20199;-62
2021/07/22 03:57:34;;;;;;;;;;;;;;;16.63;70.64;98792.70;1873457;76;20216;-61
2021/07/22 04:00:10;;;;;;;;;;;;;;;16.71;70.51;98792.16;1873464;76;20204;-62
2021/07/22 04:02:45;;;;;;;;;;;;;;;16.81;70.17;98793.32;1873460;76;20212;-62
2021/07/22 04:05:20;;;;;;;;;;;;;;;16.87;69.56;98790.63;1873482;76;20204;-62
2021/07/22 04:07:58;;;;;;;;;;;;;;;16.90;69.43;98802.30;1873478;76;20093;-62
2021/07/22 04:10:33;;;;;;;;;;;;;;;16.90;68.93;98804.91;1873383;76;20208;-62
2021/07/22 04:13:45;;;;;;;;;;;;;;;16.95;69.23;98798.31;1873568;76;20208;-62
2021/07/22 04:16:20;;;;;;;;;;;;;;;17.01;68.83;98806.87;1873461;76;20212;-63
2021/07/22 04:18:54;;;;;;;;;;;;;;;17.03;68.23;98805.09;1892884;76;20203;-64
2021/07/22 04:21:29;;;;;;;;;;;;;;;17.06;68.62;98810.70;1873458;76;20208;-63
2021/07/22 04:24:04;;;;;;;;;;;;;;;17.13;68.42;98810.56;1892777;76;20215;-63
2021/07/22 04:26:45;;;;;;;;;;;;;;;17.25;68.43;98811.22;1892738;76;20207;-64
2021/07/22 04:29:19;;;;;;;;;;;;;;;17.30;68.04;98818.52;1873450;76;20212;-63
2021/07/22 04:31:54;;;;;;;;;;;;;;;17.30;67.94;98817.20;1873476;76;20204;-63
2021/07/22 04:34:29;;;;;;;;;;;;;;;17.29;68.16;98807.67;1892778;76;20211;-63
2021/07/22 04:37:05;;;;;;;;;;;;;;;17.29;67.87;98810.28;1873458;76;20201;-62
2021/07/22 04:39:40;;;;;;;;;;;;;;;17.28;67.98;98817.25;1873457;76;20172;-61
2021/07/22 04:42:14;;;;;;;;;;;;;;;17.32;67.87;98806.30;1873484;76;20213;-62
2021/07/22 04:44:49;;;;;;;;;;;;;;;17.34;67.65;98816.27;1873581;76;20094;-62
2021/07/22 04:47:23;;;;;;;;;;;;;;;17.38;67.50;98810.13;1892887;76;20100;-61
2021/07/22 04:49:58;;;;;;;;;;;;;;;17.42;67.48;98816.98;1873821;76;20204;-63
2021/07/22 04:52:39;;;;;;;;;;;;;;;17.47;67.49;98812.53;1872579;76;20211;-63
2021/07/22 04:55:13;;;;;;;;;;;;;;;17.52;67.46;98814.61;1892798;76;20454;-62
2021/07/22 04:57:50;;;;;;;;;;;;;;;17.62;67.44;98818.35;1873535;76;20204;-63
2021/07/22 05:00:45;;;;;;;;;;;;;;;17.73;67.52;98818.56;1892732;76;20143;-62
2021/07/22 05:03:21;;;;;;;;;;;;;;;17.83;67.44;98814.02;1873276;76;20098;-63
2021/07/22 05:06:01;;;;;;;;;;;;;;;17.95;67.29;98807.23;1872523;76;20212;-64
2021/07/22 05:08:38;;;;;;;;;;;;;;;18.00;67.13;98809.30;1873391;76;20208;-63
2021/07/22 05:11:12;;;;;;;;;;;;;;;18.06;66.85;98809.61;1892729;76;20207;-63
2021/07/22 05:13:47;;;;;;;;;;;;;;;18.06;66.27;98812.22;1873274;76;20351;-63
2021/07/22 05:16:23;;;;;;;;;;;;;;;18.05;66.73;98815.73;1873424;76;20455;-63
2021/07/22 05:18:57;;;;;;;;;;;;;;;18.15;66.79;98815.09;1873401;76;20204;-63
2021/07/22 05:21:32;;;;;;;;;;;;;;;18.21;66.64;98813.64;1873364;76;20093;-63
2021/07/22 05:24:08;;;;;;;;;;;;;;;18.28;66.53;98815.23;1892718;76;20207;-62
2021/07/22 05:26:45;;;;;;;;;;;;;;;18.39;66.76;98813.25;1873327;76;20212;-64
2021/07/22 05:29:20;;;;;;;;;;;;;;;18.47;66.14;98822.22;1892734;76;20101;-63
2021/07/22 05:31:56;;;;;;;;;;;;;;;18.56;66.23;98819.37;1873235;76;20208;-62
2021/07/22 05:34:30;;;;;;;;;;;;;;;18.65;66.12;98820.92;1873416;76;20343;-63
2021/07/22 05:37:07;;;;;;;;;;;;;;;18.72;66.08;98821.16;1873389;76;20197;-63
2021/07/22 05:39:42;;;;;;;;;;;;;;;18.85;65.77;98826.55;1873483;76;20204;-64
2021/07/22 05:42:18;;;;;;;;;;;;;;;18.88;65.76;98829.53;1892703;76;20096;-62
2021/07/22 05:44:59;;;;;;;;;;;;;;;18.98;65.66;98824.91;1892659;76;20121;-63
2021/07/22 05:47:33;;;;;;;;;;;;;;;19.38;65.19;98829.11;1873400;76;20094;-65
2021/07/22 05:50:09;;;;;;;;;;;;;;;20.85;61.84;98834.41;1873420;76;20094;-63
2021/07/22 05:52:44;;;;;;;;;;;;;;;22.44;56.78;98833.08;1873244;76;20101;-64
2021/07/22 05:55:18;;;;;;;;;;;;;;;24.00;53.79;98840.13;1873399;76;20212;-62
2021/07/22 05:57:53;;;;;;;;;;;;;;;25.57;48.98;98845.25;1892856;76;20208;-62
2021/07/22 06:00:27;;;;;;;;;;;;;;;26.38;45.80;98847.95;1873530;76;20094;-63
2021/07/22 06:03:07;;;;;;;;;;;;;;;26.71;45.29;98855.81;1873242;76;20097;-63
2021/07/22 06:05:42;;;;;;;;;;;;;;;27.25;44.12;98846.98;1873347;76;20094;-64
2021/07/22 06:08:43;;;;;;;;;;;;;;;28.01;42.71;98856.55;1872523;76;20452;-64
2021/07/22 06:11:18;;;;;;;;;;;;;;;28.73;41.02;98858.61;1873409;76;20311;-63
2021/07/22 06:13:53;;;;;;;;;;;;;;;29.05;39.95;98868.05;1873383;76;20098;-63
2021/07/22 06:16:29;;;;;;;;;;;;;;;29.32;39.48;98865.39;1873439;76;20220;-63
2021/07/22 06:19:04;;;;;;;;;;;;;;;29.42;39.57;98861.99;1892726;76;20127;-64
2021/07/22 06:21:58;;;;;;;;;;;;;;;29.53;39.54;98870.55;1873357;76;20344;-63
2021/07/22 06:24:32;;;;;;;;;;;;;;;29.71;39.05;98871.61;1873407;76;20213;-63
2021/07/22 06:27:12;;;;;;;;;;;;;;;30.08;37.84;98876.06;1873543;76;20184;-65
2021/07/22 06:29:46;;;;;;;;;;;;;;;30.26;37.62;98870.42;1873436;76;20208;-62
2021/07/22 06:32:22;;;;;;;;;;;;;;;30.67;36.65;98877.22;1873253;76;20455;-64
2021/07/22 06:34:56;;;;;;;;;;;;;;;30.79;36.54;98886.98;1873450;76;20208;-63
2021/07/22 06:37:45;;;;;;;;;;;;;;;31.12;36.04;98885.47;1873511;76;20200;-64
2021/07/22 06:40:21;;;;;;;;;;;;;;;31.36;35.52;98883.59;1892779;76;20484;-63
2021/07/22 06:42:56;;;;;;;;;;;;;;;31.72;34.76;98883.09;1873256;76;20208;-62
2021/07/22 06:45:31;;;;;;;;;;;;;;;31.92;34.37;98896.71;1873436;76;20212;-63
2021/07/22 06:48:11;;;;;;;;;;;;;;;31.95;33.67;98897.34;1872503;76;20208;-62
2021/07/22 06:50:51;;;;;;;;;;;;;;;31.65;33.55;98895.69;1872506;76;20469;-61
2021/07/22 06:53:26;;;;;;;;;;;;;;;31.57;33.79;98893.61;1892735;76;20207;-64
2021/07/22 06:56:05;;;;;;;;;;;;;;;31.53;34.14;98890.84;1873268;76;20347;-63
2021/07/22 06:58:47;;;;;;;;;;;;;;;31.47;34.09;98889.50;1872520;76;20439;-63
2021/07/22 07:01:22;;;;;;;;;;;;;;;31.36;34.51;98893.42;1873415;76;20204;-63
2021/07/22 07:04:15;;;;;;;;;;;;;;;31.22;34.87;98901.14;1877799;75;20262;-63
2021/07/22 07:06:51;;;;;;;;;;;;;;;31.49;34.75;98898.70;1892670;76;20096;-63
2021/07/22 07:09:25;;;;;;;;;;;;;;;31.55;34.44;98895.58;1873396;76;20212;-62
2021/07/22 07:12:00;;;;;;;;;;;;;;;31.44;34.87;98900.86;1873428;76;20462;-63
2021/07/22 07:14:35;;;;;;;;;;;;;;;30.98;35.42;98898.97;1873375;76;20101;-67
2021/07/22 07:17:09;;;;;;;;;;;;;;;30.65;36.54;98901.30;1892736;76;20211;-63
2021/07/22 07:19:44;;;;;;;;;;;;;;;30.52;37.16;98895.66;1873505;76;20204;-64
2021/07/22 07:22:38;;;;;;;;;;;;;;;30.23;37.14;98894.58;1873277;76;20097;-65
2021/07/22 07:25:14;;;;;;;;;;;;;;;29.73;37.47;98897.63;1873188;76;20344;-66
2021/07/22 07:27:49;;;;;;;;;;;;;;;28.57;39.89;98895.05;1873502;76;20348;-64
2021/07/22 07:30:24;;;;;;;;;;;;;;;27.56;42.26;98889.36;1892800;76;20207;-63
2021/07/22 07:32:58;;;;;;;;;;;;;;;27.88;42.32;98890.91;1873361;76;20216;-62
2021/07/22 07:35:42;;;;;;;;;;;;;;;27.94;41.72;98897.67;1892651;76;20331;-63
2021/07/22 07:38:18;;;;;;;;;;;;;;;28.23;40.84;98893.19;1892685;76;20092;-63
2021/07/22 07:40:59;;;;;;;;;;;;;;;28.53;40.43;98890.91;1892657;76;20211;-65
2021/07/22 07:43:54;;;;;;;;;;;;;;;28.62;38.66;98897.42;1873260;76;20097;-64
2021/07/22 07:46:29;;;;;;;;;;;;;;;28.85;37.47;98903.45;1892714;76;20274;-64
2021/07/22 07:49:05;;;;;;;;;;;;;;;28.59;37.57;98894.97;1892716;76;20347;-64
2021/07/22 07:51:41;;;;;;;;;;;;;;;27.74;38.54;98891.38;1873390;76;20093;-63
2021/07/22 07:54:21;;;;;;;;;;;;;;;26.74;40.65;98891.85;1873281;76;20355;-63
2021/07/22 07:56:55;;;;;;;;;;;;;;;25.81;42.52;98880.09;1892700;76;20347;-64
2021/07/22 07:59:50;;;;;;;;;;;;;;;25.42;43.73;98887.00;1892675;76;20100;-64
2021/07/22 08:02:54;;;;;;;;;;;;;;;24.98;44.36;98889.55;1892685;76;20211;-63
2021/07/22 08:05:48;;;;;;;;;;;;;;;24.61;47.01;98890.50;1873462;76;20205;-63
2021/07/22 08:08:24;;;;;;;;;;;;;;;25.41;46.16;98883.95;1873243;76;20093;-63
2021/07/22 08:10:59;;;;;;;;;;;;;;;26.32;43.74;98886.67;1873397;76;20455;-62
2021/07/22 08:13:33;;;;;;;;;;;;;;;27.10;42.08;98882.29;1873380;76;20208;-63
2021/07/22 08:16:08;;;;;;;;;;;;;;;27.67;40.06;98889.55;1873409;76;20212;-64
2021/07/22 08:18:44;;;;;;;;;;;;;;;28.38;38.87;98883.89;1873377;76;20212;-63
2021/07/22 08:21:25;;;;;;;;;;;;;;;29.00;37.08;98896.25;1872544;76;20208;-64
2021/07/22 08:23:59;;;;;;;;;;;;;;;29.20;33.31;98890.49;1873407;76;20258;-65
2021/07/22 08:26:34;;;;;;;;;;;;;;;29.34;34.06;98890.06;1873407;76;20454;-64
2021/07/22 08:29:09;;;;;;;;;;;;;;;29.51;31.80;98897.72;1873421;76;20212;-63
2021/07/22 08:31:43;;;;;;;;;;;;;;;29.68;30.91;98901.09;1873409;76;20093;-64
2021/07/22 08:34:20;;;;;;;;;;;;;;;29.69;31.41;98897.45;1873386;76;20208;-64
2021/07/22 08:37:05;;;;;;;;;;;;;;;29.60;30.75;98894.45;1892680;76;20097;-64
2021/07/22 08:39:41;;;;;;;;;;;;;;;29.37;30.82;98890.70;1873374;76;20208;-63
2021/07/22 08:42:16;;;;;;;;;;;;;;;29.19;30.29;98894.60;1873357;76;20208;-65
2021/07/22 08:44:51;;;;;;;;;;;;;;;28.98;30.62;98899.03;1873423;76;20208;-62
2021/07/22 08:47:45;;;;;;;;;;;;;;;29.15;31.16;98892.61;1892673;76;20097;-64
2021/07/22 08:50:19;;;;;;;;;;;;;;;29.35;30.51;98900.58;1873369;76;20098;-63
2021/07/22 08:52:54;;;;;;;;;;;;;;;29.63;30.71;98896.89;1892702;76;20204;-63
2021/07/22 08:55:29;;;;;;;;;;;;;;;30.07;30.61;98902.77;1873378;76;20205;-64
2021/07/22 08:58:04;;;;;;;;;;;;;;;30.03;30.79;98904.81;1892729;76;20350;-63
2021/07/22 09:00:38;;;;;;;;;;;;;;;29.61;31.86;98901.45;1873352;76;20093;-62
2021/07/22 09:03:32;;;;;;;;;;;;;;;29.32;32.15;98895.95;1873378;76;20101;-64
2021/07/22 09:06:16;;;;;;;;;;;;;;;29.26;32.86;98908.31;1873323;76;20238;-63
2021/07/22 09:08:51;;;;;;;;;;;;;;;29.60;32.39;98911.73;1873336;76;20363;-63
2021/07/22 09:11:25;;;;;;;;;;;;;;;29.91;31.85;98913.64;1892682;76;20200;-63
2021/07/22 09:14:09;;;;;;;;;;;;;;;29.78;31.39;98910.14;1873353;76;20208;-64
2021/07/22 09:16:45;;;;;;;;;;;;;;;29.70;31.64;98917.80;1873184;76;20098;-63
2021/07/22 09:19:41;;;;;;;;;;;;;;;28.99;32.17;98903.86;1892634;76;20097;-63
2021/07/22 09:22:34;;;;;;;;;;;;;;;27.92;33.04;98910.16;1872496;76;20204;-64
2021/07/22 09:25:43;;;;;;;;;;;;;;;27.05;33.58;98909.04;1873232;76;20343;-63
2021/07/22 09:28:27;;;;;;;;;;;;;;;26.68;34.85;98897.03;1892726;76;20092;-63
2021/07/22 09:31:08;;;;;;;;;;;;;;;26.40;36.16;98905.62;1892675;76;20097;-63
2021/07/22 09:34:05;;;;;;;;;;;;;;;26.04;36.89;98908.47;1873238;76;20204;-63
2021/07/22 09:36:40;;;;;;;;;;;;;;;25.82;37.11;98906.06;1873393;76;20205;-63
2021/07/22 09:39:19;;;;;;;;;;;;;;;25.36;36.94;98905.31;1892700;76;20347;-64
2021/07/22 09:41:58;;;;;;;;;;;;;;;24.83;37.18;98903.06;1873354;76;20204;-63
2021/07/22 09:44:38;;;;;;;;;;;;;;;24.43;38.42;98893.52;1892676;76;20203;-63
2021/07/22 09:47:32;;;;;;;;;;;;;;;24.03;37.88;98897.50;1873386;76;20204;-65
2021/07/22 09:50:14;;;;;;;;;;;;;;;23.86;39.01;98897.86;1873316;76;20250;-64
2021/07/22 09:52:51;;;;;;;;;;;;;;;23.74;39.64;98898.81;1873368;76;20196;-62
2021/07/22 09:55:30;;;;;;;;;;;;;;;23.77;39.43;98897.83;1873354;76;20205;-65
2021/07/22 09:58:07;;;;;;;;;;;;;;;23.72;38.74;98902.41;1873436;76;20098;-64
2021/07/22 10:00:50;;;;;;;;;;;;;;;23.74;39.01;98898.81;1872502;76;20097;-63
2021/07/22 10:03:44;;;;;;;;;;;;;;;23.77;38.79;98892.55;1892705;76;20399;-64
2021/07/22 10:06:19;;;;;;;;;;;;;;;23.84;39.46;98888.73;1892809;76;20215;-63
2021/07/22 10:08:55;;;;;;;;;;;;;;;23.89;38.73;98887.18;1892691;76;20093;-65
2021/07/22 10:11:49;;;;;;;;;;;;;;;23.76;39.08;98884.23;1892618;76;20207;-64
2021/07/22 10:14:26;;;;;;;;;;;;;;;23.73;40.84;98886.55;1873217;76;20097;-65
2021/07/22 10:17:03;;;;;;;;;;;;;;;23.74;42.23;98884.33;1873344;76;20348;-64
2021/07/22 10:19:45;;;;;;;;;;;;;;;23.78;42.76;98878.44;1872485;76;20208;-64
2021/07/22 10:22:19;;;;;;;;;;;;;;;23.84;43.23;98887.41;1892681;76;20203;-64
2021/07/22 10:24:54;;;;;;;;;;;;;;;23.93;42.49;98890.94;1873455;76;20209;-63
2021/07/22 10:27:48;;;;;;;;;;;;;;;23.91;43.01;98880.91;1873441;76;20200;-63
2021/07/22 10:30:25;;;;;;;;;;;;;;;23.77;42.95;98889.92;1892722;76;20096;-63
2021/07/22 10:33:20;;;;;;;;;;;;;;;23.75;43.74;98885.17;1873436;76;20209;-64
2021/07/22 10:36:16;;;;;;;;;;;;;;;23.88;43.79;98879.74;1873304;76;20101;-64
2021/07/22 10:38:50;;;;;;;;;;;;;;;23.74;43.28;98886.11;1873428;76;20180;-65
2021/07/22 10:41:44;;;;;;;;;;;;;;;23.46;43.79;98888.59;1873349;76;20212;-64
2021/07/22 10:44:37;;;;;;;;;;;;;;;23.33;44.22;98896.59;1873376;76;20164;-64
2021/07/22 10:47:14;;;;;;;;;;;;;;;23.31;44.17;98890.55;1873221;76;20097;-63
2021/07/22 10:49:48;;;;;;;;;;;;;;;23.48;44.01;98890.67;1892685;76;20207;-64
2021/07/22 10:52:27;;;;;;;;;;;;;;;23.64;44.00;98881.66;1892702;76;20097;-64
2021/07/22 10:55:03;;;;;;;;;;;;;;;23.82;44.03;98882.66;1873171;76;20105;-64
2021/07/22 10:57:38;;;;;;;;;;;;;;;24.03;43.54;98879.05;1892669;76;20212;-65
2021/07/22 11:00:13;;;;;;;;;;;;;;;23.98;42.94;98881.04;1873407;76;20208;-64
2021/07/22 11:03:07;;;;;;;;;;;;;;;23.77;43.23;98882.02;1873304;76;20339;-63
2021/07/22 11:05:51;;;;;;;;;;;;;;;23.58;43.42;98885.43;1873376;76;20450;-63
2021/07/22 11:08:47;;;;;;;;;;;;;;;23.47;43.64;98879.75;1873264;76;20097;-63
2021/07/22 11:11:22;;;;;;;;;;;;;;;23.48;43.88;98880.59;1892674;76;20097;-63
2021/07/22 11:13:56;;;;;;;;;;;;;;;23.64;43.94;98880.81;1873376;76;20212;-63
2021/07/22 11:16:32;;;;;;;;;;;;;;;23.95;43.25;98877.70;1892743;76;20131;-63
2021/07/22 11:19:14;;;;;;;;;;;;;;;24.14;42.48;98875.06;1892805;76;20127;-62
2021/07/22 11:21:51;;;;;;;;;;;;;;;23.96;42.29;98885.52;1873135;76;20098;-63
2021/07/22 11:24:30;;;;;;;;;;;;;;;23.78;42.59;98888.98;1892793;76;20293;-63
2021/07/22 11:27:04;;;;;;;;;;;;;;;23.67;42.67;98886.80;1892813;76;20203;-64
2021/07/22 11:30:13;;;;;;;;;;;;;;;23.72;41.66;98882.64;1872463;76;20102;-64
2021/07/22 11:32:48;;;;;;;;;;;;;;;23.92;42.33;98883.97;1873251;76;20343;-64
2021/07/22 11:36:01;;;;;;;;;;;;;;;24.21;41.03;98883.09;1892643;76;20100;-65
2021/07/22 11:38:38;;;;;;;;;;;;;;;24.32;40.05;98881.27;1892707;76;20207;-63
2021/07/22 11:42:06;;;;;;;;;;;;;;;24.44;40.76;98877.59;1873103;76;20140;-64
2021/07/22 11:44:41;;;;;;;;;;;;;;;24.37;41.19;98878.80;1873392;76;20093;-63
2021/07/22 11:47:34;;;;;;;;;;;;;;;24.19;41.32;98887.11;1892670;76;20211;-64
2021/07/22 11:50:09;;;;;;;;;;;;;;;24.08;41.82;98893.81;1892699;76;20215;-64
2021/07/22 11:52:44;;;;;;;;;;;;;;;23.90;41.47;98891.55;1873400;76;20208;-64
2021/07/22 11:55:21;;;;;;;;;;;;;;;23.76;41.11;98883.80;1873232;76;20101;-65
2021/07/22 11:57:56;;;;;;;;;;;;;;;23.88;41.79;98882.38;1873416;76;20093;-63
2021/07/22 12:00:56;;;;;;;;;;;;;;;23.97;39.28;98885.93;1872622;76;20212;-64
2021/07/22 12:03:50;;;;;;;;;;;;;;;23.71;38.93;98878.28;1892742;76;20207;-63
2021/07/22 12:06:47;;;;;;;;;;;;;;;23.65;39.62;98885.15;1873441;76;20443;-64
2021/07/22 12:09:21;;;;;;;;;;;;;;;23.83;39.80;98884.36;1892678;76;20096;-64
2021/07/22 12:12:24;;;;;;;;;;;;;;;24.11;39.40;98878.70;1872474;76;20208;-64
2021/07/22 12:15:04;;;;;;;;;;;;;;;24.19;39.03;98875.71;1892718;76;20212;-63
2021/07/22 12:17:40;;;;;;;;;;;;;;;24.07;39.39;98873.63;1873272;76;20098;-65
2021/07/22 12:20:15;;;;;;;;;;;;;;;23.88;39.90;98870.98;1873353;76;20462;-63
2021/07/22 12:22:51;;;;;;;;;;;;;;;23.72;39.59;98872.11;1892679;76;20089;-63
2021/07/22 12:25:28;;;;;;;;;;;;;;;23.71;40.76;98875.64;1873355;76;20098;-64
2021/07/22 12:28:22;;;;;;;;;;;;;;;23.97;40.16;98876.70;1873393;76;20212;-64
2021/07/22 12:31:17;;;;;;;;;;;;;;;24.22;39.37;98872.92;1873344;76;20351;-63
2021/07/22 12:34:02;;;;;;;;;;;;;;;24.29;38.79;98877.00;1892687;76;20362;-63
2021/07/22 12:36:56;;;;;;;;;;;;;;;24.28;37.95;98877.94;1873431;76;20212;-63
2021/07/22 12:39:32;;;;;;;;;;;;;;;24.39;37.79;98875.64;1892738;76;20346;-64
2021/07/22 12:42:25;;;;;;;;;;;;;;;24.52;37.20;98884.33;1873432;76;20201;-64
2021/07/22 12:45:01;;;;;;;;;;;;;;;24.46;37.59;98887.66;1873412;76;20098;-63
2021/07/22 12:47:55;;;;;;;;;;;;;;;24.44;36.82;98874.95;1873399;76;20204;-63
2021/07/22 12:50:45;;;;;;;;;;;;;;;24.32;36.93;98871.57;1873351;76;20212;-63
2021/07/22 12:53:33;;;;;;;;;;;;;;;24.27;37.23;98876.20;1873558;76;20205;-62
2021/07/22 12:56:08;;;;;;;;;;;;;;;24.50;36.39;98869.91;1892719;76;20203;-62
2021/07/22 12:59:06;;;;;;;;;;;;;;;24.73;36.01;98868.81;1873327;76;20212;-64
2021/07/22 13:01:41;;;;;;;;;;;;;;;24.96;36.27;98870.77;1873308;76;20101;-64
2021/07/22 13:04:16;;;;;;;;;;;;;;;25.27;35.76;98864.38;1837739;77;20215;-64
2021/07/22 13:06:52;;;;;;;;;;;;;;;25.39;36.11;98869.95;1873394;76;20212;-64
2021/07/22 13:09:47;;;;;;;;;;;;;;;25.20;35.11;98880.62;1873333;76;20204;-65
2021/07/22 13:12:22;;;;;;;;;;;;;;;24.88;35.45;98881.70;1873309;76;20363;-63
2021/07/22 13:14:59;;;;;;;;;;;;;;;24.72;35.41;98871.04;1873376;76;20378;-62
2021/07/22 13:17:40;;;;;;;;;;;;;;;24.69;35.09;98858.00;1873392;76;20310;-64
2021/07/22 13:20:19;;;;;;;;;;;;;;;24.72;35.53;98863.59;1873439;76;20204;-64
2021/07/22 13:22:53;;;;;;;;;;;;;;;24.66;35.93;98862.11;1873429;76;20093;-64
2021/07/22 13:25:47;;;;;;;;;;;;;;;24.65;36.51;98863.91;1873394;76;20196;-64
2021/07/22 13:28:21;;;;;;;;;;;;;;;24.77;36.86;98865.07;1892718;76;20208;-65
2021/07/22 13:31:15;;;;;;;;;;;;;;;24.80;34.91;98862.28;1873378;76;20247;-64
2021/07/22 13:33:50;;;;;;;;;;;;;;;24.76;34.44;98860.73;1873428;76;20204;-64
2021/07/22 13:36:25;;;;;;;;;;;;;;;24.74;34.47;98863.91;1892686;76;20183;-65
2021/07/22 13:39:00;;;;;;;;;;;;;;;24.59;35.31;98863.33;1873260;76;20098;-64
2021/07/22 13:41:35;;;;;;;;;;;;;;;24.41;34.74;98855.33;1892812;76;20096;-63
2021/07/22 13:44:10;;;;;;;;;;;;;;;24.37;35.28;98860.81;1873240;76;20368;-64
2021/07/22 13:46:46;;;;;;;;;;;;;;;24.45;34.95;98854.30;1892731;76;20101;-65
2021/07/22 13:49:20;;;;;;;;;;;;;;;24.40;35.32;98849.67;1873445;76;20098;-65
2021/07/22 13:51:55;;;;;;;;;;;;;;;24.44;34.85;98851.22;1873519;76;20208;-64